createdAt,value
2018-06-03T00:01:40.250Z,71.40
2018-06-03T00:04:08.532Z,71.40
2018-06-03T00:06:36.916Z,71.30
2018-06-03T00:09:05.210Z,71.70
2018-06-03T00:11:33.492Z,71.60
2018-06-03T00:14:01.846Z,71.80
2018-06-03T00:16:30.145Z,71.60
2018-06-03T00:18:58.415Z,71.60
2018-06-03T00:21:43.230Z,71.70
2018-06-03T00:24:11.543Z,71.70
2018-06-03T00:26:39.837Z,71.80
2018-06-03T00:29:08.170Z,72.30
2018-06-03T00:31:36.468Z,72.50
2018-06-03T00:34:04.754Z,72.90
2018-06-03T00:36:45.551Z,73.20
2018-06-03T00:39:13.870Z,73.40
2018-06-03T00:41:42.202Z,73.90
2018-06-03T00:44:10.486Z,74.00
2018-06-03T00:46:38.764Z,74.00
2018-06-03T00:49:07.827Z,74.00
2018-06-03T00:51:36.118Z,73.90
2018-06-03T00:54:04.399Z,73.80
2018-06-03T00:56:51.313Z,73.50
2018-06-03T00:59:51.971Z,73.50
2018-06-03T01:02:21.141Z,73.70
2018-06-03T01:04:50.307Z,74.10
2018-06-03T01:07:19.607Z,74.30
2018-06-03T01:09:48.758Z,74.30
2018-06-03T01:12:17.935Z,74.40
2018-06-03T01:14:47.157Z,74.20
2018-06-03T01:17:16.301Z,74.40
2018-06-03T01:19:45.467Z,74.20
2018-06-03T01:22:14.638Z,74.40
2018-06-03T01:24:43.805Z,74.20
2018-06-03T01:27:12.972Z,74.20
2018-06-03T01:29:42.227Z,74.20
2018-06-03T01:32:11.407Z,74.50
2018-06-03T01:34:40.567Z,75.00
2018-06-03T01:37:09.742Z,74.90
2018-06-03T01:39:38.902Z,75.00
2018-06-03T01:42:08.072Z,75.30
2018-06-03T01:44:37.234Z,75.30
2018-06-03T01:47:06.422Z,75.50
2018-06-03T01:49:35.638Z,75.50
2018-06-03T01:52:04.805Z,75.60
2018-06-03T01:54:33.982Z,75.50
2018-06-03T01:57:03.134Z,75.70
2018-06-03T01:59:32.310Z,75.70
2018-06-03T02:02:01.505Z,75.70
2018-06-03T02:04:30.664Z,75.50
2018-06-03T02:07:00.078Z,75.10
2018-06-03T02:09:29.238Z,75.20
2018-06-03T02:11:58.395Z,75.20
2018-06-03T02:14:27.566Z,75.60
2018-06-03T02:16:56.706Z,75.60
2018-06-03T02:19:25.846Z,75.50
2018-06-03T02:21:54.997Z,75.50
2018-06-03T02:24:24.128Z,74.80
2018-06-03T02:26:53.278Z,75.30
2018-06-03T02:29:22.406Z,75.20
2018-06-03T02:31:51.554Z,75.40
2018-06-03T02:34:20.696Z,75.30
2018-06-03T02:36:50.842Z,75.10
2018-06-03T02:39:19.986Z,75.30
2018-06-03T02:41:49.120Z,75.90
2018-06-03T02:44:18.271Z,75.10
2018-06-03T02:46:47.394Z,75.10
2018-06-03T02:49:16.570Z,75.30
2018-06-03T02:51:45.698Z,75.10
2018-06-03T02:54:14.840Z,75.20
2018-06-03T02:56:43.969Z,75.30
2018-06-03T02:59:13.107Z,75.40
2018-06-03T03:01:42.329Z,75.50
2018-06-03T03:04:11.448Z,75.40
2018-06-03T03:06:40.644Z,75.10
2018-06-03T03:09:09.791Z,75.50
2018-06-03T03:11:38.931Z,75.30
2018-06-03T03:14:08.110Z,75.50
2018-06-03T03:16:37.316Z,75.40
2018-06-03T03:19:06.474Z,75.70
2018-06-03T03:21:35.642Z,75.80
2018-06-03T03:24:04.819Z,76.00
2018-06-03T03:26:33.991Z,76.10
2018-06-03T03:29:03.151Z,76.00
2018-06-03T03:31:32.318Z,76.00
2018-06-03T03:34:01.497Z,75.80
2018-06-03T03:36:30.670Z,76.60
2018-06-03T03:41:28.803Z,75.50
2018-06-03T03:43:57.962Z,75.50
2018-06-03T03:46:27.200Z,75.30
2018-06-03T03:48:56.577Z,75.00
2018-06-03T03:51:25.730Z,75.10
2018-06-03T03:53:54.885Z,75.30
2018-06-03T03:56:24.063Z,75.50
2018-06-03T04:01:22.153Z,76.10
2018-06-03T04:03:51.318Z,76.20
2018-06-03T04:06:20.850Z,76.20
2018-06-03T04:08:50.030Z,76.40
2018-06-03T04:11:19.278Z,76.60
2018-06-03T04:13:48.427Z,75.70
2018-06-03T04:16:17.602Z,76.00
2018-06-03T04:18:46.778Z,75.90
2018-06-03T04:21:15.934Z,76.20
2018-06-03T04:26:14.025Z,75.20
2018-06-03T04:31:12.105Z,75.50
2018-06-03T04:33:41.286Z,75.40
2018-06-03T04:36:10.527Z,75.40
2018-06-03T04:38:39.677Z,75.50
2018-06-03T04:41:08.860Z,75.20
2018-06-03T04:43:38.046Z,75.00
2018-06-03T04:46:07.199Z,75.00
2018-06-03T04:48:36.355Z,74.80
2018-06-03T04:51:05.530Z,75.20
2018-06-03T04:53:34.707Z,74.90
2018-06-03T04:56:04.097Z,74.90
2018-06-03T04:58:33.259Z,75.00
2018-06-03T05:01:02.415Z,75.00
2018-06-03T05:03:31.591Z,74.80
2018-06-03T05:06:00.798Z,74.50
2018-06-03T05:08:30.032Z,74.30
2018-06-03T05:10:59.341Z,74.50
2018-06-03T05:13:28.510Z,74.50
2018-06-03T05:15:58.007Z,73.90
2018-06-03T05:18:27.250Z,74.20
2018-06-03T05:20:56.497Z,74.70
2018-06-03T05:23:25.793Z,73.80
2018-06-03T05:25:54.977Z,73.80
2018-06-03T05:28:24.258Z,73.50
2018-06-03T05:30:53.478Z,73.00
2018-06-03T05:33:22.706Z,72.50
2018-06-03T05:35:51.906Z,73.20
2018-06-03T05:38:21.122Z,72.80
2018-06-03T05:40:50.296Z,72.80
2018-06-03T05:43:19.477Z,72.60
2018-06-03T05:45:49.006Z,72.50
2018-06-03T05:48:18.315Z,72.10
2018-06-03T05:50:47.469Z,72.00
2018-06-03T05:53:16.697Z,71.60
2018-06-03T05:55:45.900Z,72.00
2018-06-03T05:58:15.064Z,71.50
2018-06-03T06:00:44.216Z,70.70
2018-06-03T06:03:13.402Z,70.90
2018-06-03T06:05:42.758Z,70.40
2018-06-03T06:08:11.932Z,70.40
2018-06-03T06:10:41.174Z,70.80
2018-06-03T06:13:10.691Z,70.40
2018-06-03T06:15:39.902Z,70.00
2018-06-03T06:18:09.038Z,69.90
2018-06-03T06:20:38.175Z,70.40
2018-06-03T06:23:08.329Z,70.70
2018-06-03T06:25:37.494Z,71.20
2018-06-03T06:28:06.658Z,72.10
2018-06-03T06:30:35.790Z,72.00
2018-06-03T06:33:05.041Z,71.80
2018-06-03T06:35:34.371Z,71.80
2018-06-03T06:38:03.506Z,71.40
2018-06-03T06:40:32.633Z,70.40
2018-06-03T06:43:01.802Z,70.90
2018-06-03T06:45:30.927Z,71.00
2018-06-03T06:48:00.078Z,69.50
2018-06-03T06:50:29.738Z,70.80
2018-06-03T06:52:59.118Z,70.10
2018-06-03T06:55:28.253Z,70.20
2018-06-03T06:57:57.393Z,70.30
2018-06-03T07:00:26.550Z,70.00
2018-06-03T07:02:55.737Z,69.00
2018-06-03T07:05:24.968Z,68.60
2018-06-03T07:07:54.127Z,68.40
2018-06-03T07:10:23.253Z,66.90
2018-06-03T07:12:52.402Z,67.00
2018-06-03T07:15:21.563Z,65.40
2018-06-03T07:17:50.753Z,65.20
2018-06-03T07:20:19.926Z,67.90
2018-06-03T07:22:49.126Z,68.60
2018-06-03T07:25:18.303Z,68.20
2018-06-03T07:27:47.476Z,67.60
2018-06-03T07:30:16.654Z,67.60
2018-06-03T07:32:45.863Z,66.40
2018-06-03T07:35:15.011Z,67.20
2018-06-03T07:37:44.161Z,67.70
2018-06-03T07:40:13.295Z,67.10
2018-06-03T07:45:11.480Z,66.90
2018-06-03T07:47:40.597Z,67.90
2018-06-03T07:50:10.094Z,64.90
2018-06-03T07:52:39.226Z,64.80
2018-06-03T07:55:08.350Z,64.90
2018-06-03T07:57:37.578Z,63.80
2018-06-03T08:00:06.749Z,65.70
2018-06-03T08:02:35.907Z,64.60
2018-06-03T08:05:05.056Z,66.40
2018-06-03T08:07:34.199Z,66.10
2018-06-03T08:10:03.364Z,65.30
2018-06-03T08:12:32.530Z,64.60
2018-06-03T08:15:01.724Z,65.50
2018-06-03T08:17:30.878Z,65.70
2018-06-03T08:20:00.057Z,66.40
2018-06-03T08:22:29.214Z,65.50
2018-06-03T08:24:58.411Z,65.70
2018-06-03T08:27:27.598Z,65.00
2018-06-03T08:29:56.771Z,64.20
2018-06-03T08:32:25.936Z,62.10
2018-06-03T08:34:55.105Z,60.30
2018-06-03T08:37:24.245Z,58.70
2018-06-03T08:39:53.371Z,60.60
2018-06-03T08:42:22.505Z,61.20
2018-06-03T08:44:51.648Z,60.00
2018-06-03T08:47:20.790Z,61.50
2018-06-03T08:49:49.922Z,61.70
2018-06-03T08:52:19.066Z,64.80
2018-06-03T08:54:48.542Z,64.90
2018-06-03T08:57:17.665Z,63.40
2018-06-03T08:59:46.925Z,64.00
2018-06-03T09:02:16.061Z,62.40
2018-06-03T09:04:45.206Z,64.00
2018-06-03T09:07:14.427Z,63.40
2018-06-03T09:09:43.566Z,62.30
2018-06-03T09:12:12.699Z,61.80
2018-06-03T09:14:41.839Z,62.20
2018-06-03T09:17:11.013Z,61.20
2018-06-03T09:19:40.138Z,59.90
2018-06-03T09:22:09.305Z,60.80
2018-06-03T09:24:38.431Z,62.50
2018-06-03T09:27:07.570Z,63.40
2018-06-03T09:29:36.860Z,61.20
2018-06-03T09:32:06.050Z,60.50
2018-06-03T09:34:35.215Z,58.90
2018-06-03T09:37:04.391Z,59.80
2018-06-03T09:39:33.521Z,58.80
2018-06-03T09:42:02.720Z,60.00
2018-06-03T09:44:31.888Z,60.10
2018-06-03T09:47:00.988Z,58.80
2018-06-03T09:49:30.379Z,58.20
2018-06-03T09:51:59.515Z,61.20
2018-06-03T09:54:28.654Z,58.40
2018-06-03T09:56:57.811Z,59.90
2018-06-03T09:59:26.947Z,57.90
2018-06-03T10:01:56.107Z,57.30
2018-06-03T10:04:25.243Z,57.20
2018-06-03T10:06:54.378Z,56.40
2018-06-03T10:09:23.530Z,57.60
2018-06-03T10:11:52.684Z,59.70
2018-06-03T10:14:21.814Z,57.30
2018-06-03T10:16:51.322Z,57.10
2018-06-03T10:21:49.506Z,58.90
2018-06-03T10:24:18.703Z,58.90
2018-06-03T10:29:16.835Z,58.70
2018-06-03T10:31:46.038Z,57.30
2018-06-03T10:34:15.210Z,58.30
2018-06-03T10:36:44.393Z,58.90
2018-06-03T10:39:13.583Z,60.80
2018-06-03T10:41:42.743Z,61.50
2018-06-03T10:44:11.937Z,59.20
2018-06-03T10:46:41.481Z,58.80
2018-06-03T10:49:10.786Z,57.20
2018-06-03T10:51:39.977Z,56.50
2018-06-03T10:54:09.212Z,55.00
2018-06-03T10:56:38.390Z,57.30
2018-06-03T10:59:07.685Z,54.90
2018-06-03T11:01:37.022Z,56.50
2018-06-03T11:04:06.170Z,55.60
2018-06-03T11:06:35.329Z,56.50
2018-06-03T11:09:05.684Z,55.80
2018-06-03T11:11:34.847Z,55.00
2018-06-03T11:14:04.026Z,54.10
2018-06-03T11:16:33.218Z,55.00
2018-06-03T11:19:02.359Z,53.40
2018-06-03T11:21:31.699Z,54.50
2018-06-03T11:24:01.020Z,53.30
2018-06-03T11:26:30.175Z,54.30
2018-06-03T11:28:59.347Z,54.40
2018-06-03T11:31:28.786Z,56.30
2018-06-03T11:33:57.946Z,51.90
2018-06-03T11:36:27.120Z,52.60
2018-06-03T11:38:56.319Z,54.80
2018-06-03T11:41:25.634Z,48.90
2018-06-03T11:43:54.807Z,52.80
2018-06-03T11:46:24.032Z,51.70
2018-06-03T11:48:53.290Z,49.70
2018-06-03T11:51:22.784Z,52.20
2018-06-03T11:53:52.028Z,51.10
2018-06-03T11:56:21.162Z,51.60
2018-06-03T11:58:53.046Z,50.00
2018-06-03T12:01:22.537Z,49.60
2018-06-03T12:03:51.708Z,49.70
2018-06-03T12:06:20.964Z,50.50
2018-06-03T12:08:50.134Z,50.10
2018-06-03T12:11:19.362Z,49.10
2018-06-03T12:13:48.544Z,49.20
2018-06-03T12:16:18.459Z,52.10
2018-06-03T12:18:48.288Z,49.30
2018-06-03T12:21:18.289Z,48.70
2018-06-03T12:23:48.344Z,48.20
2018-06-03T12:26:18.811Z,49.30
2018-06-03T12:28:48.763Z,46.40
2018-06-03T12:31:18.713Z,47.90
2018-06-03T12:33:48.762Z,48.80
2018-06-03T12:36:18.782Z,46.90
2018-06-03T12:38:49.001Z,49.20
2018-06-03T12:41:18.446Z,47.50
2018-06-03T12:43:47.823Z,48.10
2018-06-03T12:46:18.174Z,50.00
2018-06-03T12:48:47.493Z,49.40
2018-06-03T12:51:16.867Z,50.40
2018-06-03T12:53:46.350Z,47.30
2018-06-03T12:58:44.606Z,48.70
2018-06-03T13:01:13.785Z,47.30
2018-06-03T13:03:43.050Z,47.00
2018-06-03T13:06:12.230Z,46.00
2018-06-03T13:08:41.451Z,48.00
2018-06-03T13:11:10.894Z,45.60
2018-06-03T13:13:40.063Z,47.10
2018-06-03T13:16:09.214Z,45.40
2018-06-03T13:18:38.396Z,47.80
2018-06-03T13:21:07.552Z,45.50
2018-06-03T13:23:36.782Z,46.20
2018-06-03T13:26:06.006Z,47.50
2018-06-03T13:31:04.414Z,48.40
2018-06-03T13:33:33.579Z,49.30
2018-06-03T13:36:02.805Z,47.80
2018-06-03T13:38:31.959Z,48.20
2018-06-03T13:41:01.128Z,48.30
2018-06-03T13:43:30.303Z,48.40
2018-06-03T13:45:59.526Z,47.40
2018-06-03T13:48:28.766Z,48.20
2018-06-03T13:50:57.974Z,46.00
2018-06-03T13:53:27.153Z,45.60
2018-06-03T13:55:56.312Z,46.20
2018-06-03T13:58:25.470Z,47.50
2018-06-03T14:00:54.646Z,47.80
2018-06-03T14:03:23.833Z,50.50
2018-06-03T14:05:52.993Z,47.90
2018-06-03T14:08:22.204Z,48.80
2018-06-03T14:10:51.357Z,49.00
2018-06-03T14:13:20.567Z,49.80
2018-06-03T14:15:49.839Z,49.70
2018-06-03T14:18:19.347Z,48.40
2018-06-03T14:20:48.526Z,47.70
2018-06-03T14:23:17.695Z,48.30
2018-06-03T14:25:46.867Z,45.60
2018-06-03T14:28:16.059Z,44.70
2018-06-03T14:30:45.243Z,46.30
2018-06-03T14:35:43.359Z,46.20
2018-06-03T14:38:12.531Z,47.70
2018-06-03T14:40:41.873Z,47.30
2018-06-03T14:43:11.029Z,46.70
2018-06-03T14:45:40.222Z,48.30
2018-06-03T14:48:09.385Z,45.90
2018-06-03T14:50:38.576Z,46.80
2018-06-03T14:53:07.725Z,48.50
2018-06-03T14:55:36.886Z,47.20
2018-06-03T14:58:06.093Z,47.00
2018-06-03T15:00:35.219Z,46.30
2018-06-03T15:03:04.390Z,46.20
2018-06-03T15:05:33.579Z,47.00
2018-06-03T15:08:02.777Z,45.70
2018-06-03T15:10:31.949Z,45.90
2018-06-03T15:13:01.102Z,47.10
2018-06-03T15:15:30.290Z,46.60
2018-06-03T15:17:59.455Z,46.20
2018-06-03T15:20:28.735Z,46.00
2018-06-03T15:22:57.911Z,47.70
2018-06-03T15:25:27.087Z,47.80
2018-06-03T15:27:56.594Z,48.30
2018-06-03T15:30:25.762Z,47.30
2018-06-03T15:32:54.991Z,48.60
2018-06-03T15:35:24.194Z,48.40
2018-06-03T15:37:54.001Z,48.20
2018-06-03T15:40:24.238Z,48.40
2018-06-03T15:42:53.397Z,47.20
2018-06-03T15:45:22.570Z,48.70
2018-06-03T15:47:51.729Z,49.00
2018-06-03T15:50:20.902Z,49.40
2018-06-03T15:52:50.071Z,49.60
2018-06-03T15:55:19.308Z,48.60
2018-06-03T15:57:48.459Z,49.10
2018-06-03T16:00:17.635Z,48.50
2018-06-03T16:02:47.882Z,49.50
2018-06-03T16:05:17.050Z,49.90
2018-06-03T16:07:46.231Z,49.80
2018-06-03T16:10:15.419Z,49.40
2018-06-03T16:12:44.590Z,49.60
2018-06-03T16:15:13.754Z,49.20
2018-06-03T16:17:42.918Z,50.00
2018-06-03T16:20:12.086Z,49.50
2018-06-03T16:22:41.259Z,48.90
2018-06-03T16:25:10.438Z,50.00
2018-06-03T16:27:39.835Z,50.20
2018-06-03T16:32:37.927Z,50.50
2018-06-03T16:35:07.176Z,50.50
2018-06-03T16:37:36.347Z,50.70
2018-06-03T16:40:05.547Z,50.60
2018-06-03T16:42:34.715Z,50.50
2018-06-03T16:45:03.912Z,50.80
2018-06-03T16:47:33.114Z,51.70
2018-06-03T16:50:02.315Z,51.00
2018-06-03T16:52:31.514Z,51.30
2018-06-03T16:55:01.101Z,51.80
2018-06-03T16:57:30.267Z,52.50
2018-06-03T16:59:59.430Z,52.10
2018-06-03T17:02:28.601Z,52.20
2018-06-03T17:04:57.769Z,52.20
2018-06-03T17:07:26.948Z,52.40
2018-06-03T17:09:56.192Z,53.30
2018-06-03T17:12:25.379Z,53.40
2018-06-03T17:14:54.554Z,53.60
2018-06-03T17:17:23.726Z,53.70
2018-06-03T17:19:52.987Z,52.90
2018-06-03T17:22:22.143Z,53.80
2018-06-03T17:24:51.562Z,53.30
2018-06-03T17:27:20.743Z,53.30
2018-06-03T17:29:49.888Z,53.40
2018-06-03T17:32:19.118Z,53.50
2018-06-03T17:34:48.563Z,53.40
2018-06-03T17:37:17.774Z,53.00
2018-06-03T17:39:46.970Z,52.80
2018-06-03T17:42:16.176Z,52.90
2018-06-03T17:44:45.394Z,53.00
2018-06-03T17:47:14.562Z,52.70
2018-06-03T17:49:43.784Z,52.90
2018-06-03T17:52:12.968Z,53.20
2018-06-03T17:54:42.131Z,52.80
2018-06-03T17:57:11.370Z,52.70
2018-06-03T17:59:40.771Z,52.90
2018-06-03T18:02:09.938Z,52.90
2018-06-03T18:04:39.091Z,53.30
2018-06-03T18:07:08.266Z,53.30
2018-06-03T18:09:37.434Z,53.90
2018-06-03T18:12:06.616Z,53.80
2018-06-03T18:14:35.786Z,53.80
2018-06-03T18:17:05.117Z,54.20
2018-06-03T18:19:34.350Z,54.30
2018-06-03T18:22:03.566Z,54.80
2018-06-03T18:24:32.737Z,54.70
2018-06-03T18:27:01.923Z,54.10
2018-06-03T18:29:31.855Z,55.20
2018-06-03T18:32:01.210Z,55.10
2018-06-03T18:34:30.590Z,55.30
2018-06-03T18:36:59.964Z,55.60
2018-06-03T18:39:29.214Z,55.60
2018-06-03T18:41:58.378Z,55.70
2018-06-03T18:44:27.670Z,56.30
2018-06-03T18:46:57.014Z,56.20
2018-06-03T18:51:55.414Z,56.50
2018-06-03T18:54:24.613Z,57.20
2018-06-03T18:56:53.911Z,57.40
2018-06-03T18:59:23.432Z,58.00
2018-06-03T19:01:52.703Z,59.00
2018-06-03T19:04:21.862Z,58.60
2018-06-03T19:06:51.385Z,59.00
2018-06-03T19:09:21.535Z,59.10
2018-06-03T19:11:50.755Z,59.00
2018-06-03T19:14:19.976Z,59.40
2018-06-03T19:16:49.147Z,59.40
2018-06-03T19:21:47.350Z,60.20
2018-06-03T19:24:16.518Z,60.10
2018-06-03T19:26:45.818Z,60.50
2018-06-03T19:29:15.114Z,60.20
2018-06-03T19:31:44.607Z,60.80
2018-06-03T19:34:13.919Z,61.20
2018-06-03T19:36:43.126Z,60.30
2018-06-03T19:39:12.363Z,61.10
2018-06-03T19:41:41.512Z,60.80
2018-06-03T19:44:11.039Z,61.30
2018-06-03T19:46:40.258Z,61.40
2018-06-03T19:49:09.421Z,62.20
2018-06-03T19:51:38.648Z,62.50
2018-06-03T19:54:07.984Z,62.20
2018-06-03T19:56:37.146Z,62.50
2018-06-03T19:59:06.752Z,62.50
2018-06-03T20:01:35.924Z,61.90
2018-06-03T20:04:05.133Z,62.10
2018-06-03T20:06:34.462Z,62.20
2018-06-03T20:09:04.347Z,62.80
2018-06-03T20:11:34.051Z,63.10
2018-06-03T20:14:03.530Z,63.30
2018-06-03T20:16:32.698Z,63.50
2018-06-03T20:19:01.877Z,63.90
2018-06-03T20:21:31.099Z,64.20
2018-06-03T20:24:00.232Z,64.10
2018-06-03T20:26:29.386Z,64.20
2018-06-03T20:28:58.541Z,63.90
2018-06-03T20:33:56.613Z,64.40
2018-06-03T20:36:25.777Z,65.10
2018-06-03T20:38:54.954Z,65.40
2018-06-03T20:41:23.155Z,65.30
2018-06-03T20:43:52.422Z,65.20
2018-06-03T20:46:21.616Z,65.10
2018-06-03T20:48:51.196Z,65.60
2018-06-03T20:51:20.353Z,65.60
2018-06-03T20:53:49.526Z,65.60
2018-06-03T20:56:18.998Z,65.60
2018-06-03T20:58:48.302Z,65.60
2018-06-03T21:03:46.490Z,65.80
2018-06-03T21:06:15.707Z,65.80
2018-06-03T21:08:44.865Z,65.60
2018-06-03T21:13:43.097Z,65.70
2018-06-03T21:16:12.275Z,66.00
2018-06-03T21:18:41.448Z,66.10
2018-06-03T21:21:10.694Z,66.00
2018-06-03T21:23:39.890Z,65.80
2018-06-03T21:26:09.476Z,65.90
2018-06-03T21:28:38.658Z,66.20
2018-06-03T21:31:07.822Z,65.80
2018-06-03T21:33:37.022Z,65.90
2018-06-03T21:36:06.442Z,65.90
2018-06-03T21:41:04.567Z,65.60
2018-06-03T21:43:33.871Z,65.70
2018-06-03T21:46:03.050Z,65.70
2018-06-03T21:48:32.279Z,65.10
2018-06-03T21:51:01.827Z,65.70
2018-06-03T21:53:31.038Z,65.00
2018-06-03T21:56:00.174Z,64.10
2018-06-03T21:58:29.380Z,64.60
2018-06-03T22:00:58.470Z,64.90
2018-06-03T22:03:27.950Z,65.20
2018-06-03T22:08:25.999Z,65.40
2018-06-03T22:10:55.433Z,65.60
2018-06-03T22:13:24.567Z,65.80
2018-06-03T22:15:53.697Z,66.10
2018-06-03T22:18:23.059Z,65.80
2018-06-03T22:20:52.190Z,65.80
2018-06-03T22:23:21.318Z,65.70
2018-06-03T22:25:50.461Z,66.30
2018-06-03T22:28:19.610Z,66.10
2018-06-03T22:30:48.739Z,65.10
2018-06-03T22:33:17.882Z,64.00
2018-06-03T22:35:47.078Z,64.70
2018-06-03T22:38:16.255Z,65.80
2018-06-03T22:40:45.428Z,66.50
2018-06-03T22:43:14.604Z,65.50
2018-06-03T22:45:43.759Z,65.50
2018-06-03T22:48:12.926Z,66.00
2018-06-03T22:50:42.077Z,66.10
2018-06-03T22:53:11.306Z,65.60
2018-06-03T22:55:40.482Z,65.90
2018-06-03T22:58:09.658Z,66.20
2018-06-03T23:00:38.827Z,66.40
2018-06-03T23:03:13.382Z,66.50
2018-06-03T23:05:42.627Z,65.80
2018-06-03T23:08:11.883Z,66.30
2018-06-03T23:10:41.051Z,66.40
2018-06-03T23:13:10.209Z,66.50
2018-06-03T23:15:39.378Z,66.50
2018-06-03T23:18:08.566Z,66.40
2018-06-03T23:20:37.715Z,66.70
2018-06-03T23:23:06.863Z,66.70
2018-06-03T23:25:36.006Z,66.30
2018-06-03T23:28:05.141Z,66.20
2018-06-03T23:30:34.291Z,66.20
2018-06-03T23:33:03.436Z,66.00
2018-06-03T23:35:32.710Z,65.90
2018-06-03T23:38:01.875Z,66.00
2018-06-03T23:40:31.092Z,64.90
2018-06-03T23:43:00.230Z,64.20
2018-06-03T23:45:29.390Z,65.10
2018-06-03T23:47:58.517Z,64.40
2018-06-03T23:50:27.709Z,65.10
2018-06-03T23:52:56.851Z,65.60
2018-06-03T23:55:26.037Z,65.60
